Terminal Aerodrome Forecast
Issued by NWS

Home | Current Version | Previous Version | Text Only | Print | Product List | Glossary Off
Versions: 1 2 3 4 5 6 7 8 9 10 11 12 13 14 15 16 17 18 19 20 21 22 23 24 25 26 27 28 29

178
FTUS43 KABR 230440 CCA
TAFPIR
TAF COR
KPIR 230440Z 2305/2324 32012KT P6SM OVC018
     FM230800 35008KT P6SM OVC020
     FM231200 35008KT P6SM VCSH OVC015
     FM231400 35008KT P6SM OVC015
     FM231700 01008KT P6SM -SHRA OVC010
     FM232100 02008KT 3SM -SHRA BR OVC008=

USA.gov is the U.S. government's official web portal to all federal, state and local government web resources and services.